Olpe, Kansas
Current Conditions -  °F | °C
As of 2:53 AM on Friday 28 Nov 2014 (Local Time) from KEMP Reporting Station
Clear Clear  
Wind Chill: 20°   Ceiling: Unl
Heat Index: 31°   Visibility: 10mi
Dew Point: 23°   Wind: 16mph
Humidity: 72%   Direction: 170°S
Pressure: 30.09"   Gusts: NA
Location:  38.26°N, 96.17°W
Report Text: KEMP 280853Z AUTO 17014KT 10SM CLR M01/M05 A3009 RMK AO2 SLP198 T10061050 56030
Loading
Personal Weather Stations






























Interactive Weather Map New forecast layout! Learn more

10-Day Weather Forecast

Advertisements
Track Severe Weather on mobile